Time;durP1;ratioP1;P1;durP2;ratioP2;P2;SDS_P1;SDS_P2;PMS_P1;PMS_P2;Temp;Humidity;BMP_temperature;BMP_pressure;BME280_temperature;BME280_humidity;BME280_pressure;Samples;Min_cycle;Max_cycle;Signal;HPM_P1;HPM_P2
2023/01/03 00:01:20;;;;;;;;;72.75;61.25;;;;;20.50;51.16;95643.81;4990940;28;10336;-82
2023/01/03 00:03:48;;;;;;;;;84.00;69.00;;;;;20.51;51.05;95633.53;4992371;28;11126;-82
2023/01/03 00:06:21;;;;;;;;;71.50;61.25;;;;;20.49;50.93;95636.69;4991962;28;10915;-82
2023/01/03 00:08:48;;;;;;;;;70.50;60.25;;;;;20.47;51.10;95641.88;4984460;28;9190;-82
2023/01/03 00:11:18;;;;;;;;;72.00;61.25;;;;;20.47;50.89;95646.63;4982875;28;8819;-82
2023/01/03 00:13:45;;;;;;;;;72.25;61.00;;;;;20.46;51.07;95637.56;4985141;28;8863;-82
2023/01/03 00:16:17;;;;;;;;;72.75;61.25;;;;;20.46;50.76;95636.75;4983018;28;8895;-83
2023/01/03 00:18:45;;;;;;;;;77.25;65.00;;;;;20.45;50.72;95638.75;4980198;28;8853;-82
2023/01/03 00:21:12;;;;;;;;;73.00;60.00;;;;;20.46;50.57;95637.56;4990489;28;10477;-83
2023/01/03 00:23:39;;;;;;;;;77.50;64.75;;;;;20.46;50.54;95643.09;4982852;28;9373;-82
2023/01/03 00:26:10;;;;;;;;;73.00;61.25;;;;;20.45;50.53;95641.53;4983594;28;10265;-83
2023/01/03 00:28:37;;;;;;;;;80.75;67.25;;;;;20.46;50.38;95642.31;5064955;28;9596;-82
2023/01/03 00:31:09;;;;;;;;;73.25;61.00;;;;;20.46;50.20;95639.53;4990906;28;10732;-83
2023/01/03 00:33:38;;;;;;;;;72.50;61.00;;;;;20.46;50.30;95642.31;4999957;28;10368;-82
2023/01/03 00:36:07;;;;;;;;;83.00;70.00;;;;;20.47;49.88;95638.34;4979770;28;10584;-82
2023/01/03 00:38:36;;;;;;;;;74.25;62.25;;;;;20.46;50.42;95629.25;4982673;28;11046;-82
2023/01/03 00:41:04;;;;;;;;;72.50;61.00;;;;;20.46;50.11;95637.56;4991348;28;9047;-82
2023/01/03 00:43:31;;;;;;;;;70.00;60.00;;;;;20.47;49.99;95635.56;4986308;28;8839;-80
2023/01/03 00:45:58;;;;;;;;;81.50;68.00;;;;;20.46;50.03;95634.00;4988585;28;8870;-82
2023/01/03 00:48:25;;;;;;;;;72.50;61.25;;;;;20.47;49.84;95618.94;4988524;28;10990;-82
2023/01/03 00:50:52;;;;;;;;;76.25;64.25;;;;;20.46;49.86;95625.69;4982496;28;8978;-82
2023/01/03 00:53:20;;;;;;;;;71.25;61.00;;;;;20.45;49.99;95635.19;4982950;28;10644;-82
2023/01/03 00:55:48;;;;;;;;;76.00;63.75;;;;;20.44;49.71;95634.44;4979064;28;10414;-82
2023/01/03 00:58:15;;;;;;;;;78.50;65.25;;;;;20.42;49.81;95634.06;4982681;28;11295;-82
2023/01/03 01:00:41;;;;;;;;;82.25;68.25;;;;;20.42;49.91;95631.28;4987442;28;10640;-82
2023/01/03 01:03:10;;;;;;;;;70.25;60.25;;;;;20.46;49.85;95639.53;4984896;28;10725;-82
2023/01/03 01:05:37;;;;;;;;;72.00;61.25;;;;;20.42;49.57;95631.28;4976792;28;8863;-82
2023/01/03 01:08:04;;;;;;;;;79.25;66.75;;;;;20.43;49.65;95643.16;5000503;28;9377;-83
2023/01/03 01:10:30;;;;;;;;;77.25;65.25;;;;;20.43;49.44;95641.16;4998919;28;11107;-83
2023/01/03 01:12:57;;;;;;;;;73.00;61.00;;;;;20.43;49.57;95645.94;4979174;28;10670;-82
2023/01/03 01:15:24;;;;;;;;;72.50;61.25;;;;;20.44;49.56;95651.03;4977217;28;8851;-82
2023/01/03 01:17:51;;;;;;;;;78.00;65.25;;;;;20.44;49.53;95645.50;4987840;28;10474;-82
2023/01/03 01:20:18;;;;;;;;;73.00;61.25;;;;;20.43;49.37;95637.63;4982899;28;10621;-82
2023/01/03 01:22:45;;;;;;;;;73.00;61.00;;;;;20.42;49.22;95642.38;4999232;28;9151;-82
2023/01/03 01:25:12;;;;;;;;;75.00;63.00;;;;;20.43;49.29;95640.41;4987254;28;8980;-82
2023/01/03 01:27:39;;;;;;;;;73.00;61.25;;;;;20.41;49.39;95640.81;4981544;28;10979;-82
2023/01/03 01:30:06;;;;;;;;;75.75;63.50;;;;;20.44;49.18;95644.72;4980925;28;8998;-82
2023/01/03 01:32:33;;;;;;;;;78.50;65.25;;;;;20.42;49.09;95642.38;4976444;28;10064;-82
2023/01/03 01:35:00;;;;;;;;;75.75;62.50;;;;;20.43;49.03;95643.16;4990651;28;10360;-83
2023/01/03 01:37:26;;;;;;;;;72.25;61.00;;;;;20.44;48.98;95647.47;4992461;28;10007;-82
2023/01/03 01:39:53;;;;;;;;;72.25;61.00;;;;;20.43;48.95;95645.94;4989864;28;8830;-82
2023/01/03 01:45:12;;;;;;;;;72.25;59.75;;;;;20.42;49.08;95647.91;4984428;28;10784;-83
2023/01/03 01:47:41;;;;;;;;;80.00;67.00;;;;;20.40;48.97;95642.00;4976079;28;8820;-83
2023/01/03 01:50:22;;;;;;;;;71.50;60.25;;;;;20.40;48.96;95633.69;4993087;28;10772;-82
2023/01/03 01:53:01;;;;;;;;;80.25;67.25;;;;;20.41;48.85;95640.81;4991047;28;8839;-82
2023/01/03 01:55:39;;;;;;;;;82.50;69.00;;;;;20.41;48.74;95643.56;4984092;28;10601;-82
2023/01/03 01:58:08;;;;;;;;;73.75;61.25;;;;;20.40;48.79;95645.56;4993224;28;10553;-82
2023/01/03 02:00:36;;;;;;;;;72.50;60.75;;;;;20.40;48.73;95642.00;4986027;28;8859;-82
2023/01/03 02:03:04;;;;;;;;;71.75;61.75;;;;;20.40;48.61;95648.34;4989115;28;9223;-83
2023/01/03 02:05:34;;;;;;;;;77.75;64.25;;;;;20.40;48.57;95642.00;4989318;28;8856;-82
2023/01/03 02:08:01;;;;;;;;;82.00;68.00;;;;;20.42;48.69;95652.69;4981462;28;10381;-82
2023/01/03 02:10:46;;;;;;;;;80.75;67.00;;;;;20.41;48.52;95654.66;4987131;28;10773;-82
2023/01/03 02:13:16;;;;;;;;;70.25;59.75;;;;;20.39;48.37;95662.59;4984357;28;10973;-83
2023/01/03 02:15:45;;;;;;;;;70.75;60.75;;;;;20.40;48.57;95661.41;4993974;28;8870;-82
2023/01/03 02:18:45;;;;;;;;;73.00;61.25;;;;;20.38;48.37;95656.28;4989246;28;8971;-82
2023/01/03 02:21:31;;;;;;;;;82.25;68.25;;;;;20.40;48.30;95661.41;4982075;28;10227;-83
2023/01/03 02:24:21;;;;;;;;;80.25;68.00;;;;;20.39;48.42;95670.91;4983801;28;10834;-83
2023/01/03 02:26:56;;;;;;;;;70.75;60.75;;;;;20.39;48.32;95662.59;4981149;28;11666;-83
2023/01/03 02:29:44;;;;;;;;;80.25;68.00;;;;;20.38;48.22;95664.59;4978779;28;8844;-82
2023/01/03 02:32:33;;;;;;;;;80.75;67.50;;;;;20.38;48.14;95664.59;4983924;28;11426;-83
2023/01/03 02:35:41;;;;;;;;;72.25;60.00;;;;;20.38;48.03;95674.91;4995420;28;10770;-82
2023/01/03 02:38:24;;;;;;;;;77.75;65.25;;;;;20.37;47.91;95667.78;4987261;28;8855;-82
2023/01/03 02:41:15;;;;;;;;;68.00;58.25;;;;;20.38;48.22;95678.44;5060922;28;10503;-83
2023/01/03 02:44:13;;;;;;;;;69.25;59.00;;;;;20.36;47.90;95677.31;4989682;28;9438;-83
2023/01/03 02:46:49;;;;;;;;;78.25;66.00;;;;;20.36;47.88;95678.06;4980084;28;8870;-83
2023/01/03 02:49:29;;;;;;;;;76.25;64.25;;;;;20.36;48.03;95669.75;5013343;28;10405;-83
2023/01/03 02:52:07;;;;;;;;;72.00;61.50;;;;;20.36;48.09;95674.53;4987942;28;10365;-83
2023/01/03 02:54:40;;;;;;;;;71.25;61.25;;;;;20.34;47.97;95672.19;4984350;28;8917;-83
2023/01/03 02:57:17;;;;;;;;;69.75;60.00;;;;;20.37;48.04;95676.09;4976894;28;10607;-83
2023/01/03 02:59:56;;;;;;;;;77.50;64.50;;;;;20.37;47.99;95678.88;4978841;28;8836;-82
2023/01/03 03:02:28;;;;;;;;;80.25;66.25;;;;;20.35;47.95;95675.75;4992126;28;10462;-83
2023/01/03 03:04:56;;;;;;;;;72.00;61.00;;;;;20.36;47.86;95680.06;4977551;28;10830;-83
2023/01/03 03:07:35;;;;;;;;;73.00;61.25;;;;;20.37;48.04;95684.41;4988273;28;8954;-82
2023/01/03 03:13:13;;;;;;;;;67.25;58.25;;;;;20.36;48.10;95691.91;5016732;28;10774;-83
2023/01/03 03:15:49;;;;;;;;;68.25;58.25;;;;;20.34;47.99;95693.56;5018551;28;8890;-83
2023/01/03 03:19:08;;;;;;;;;71.00;60.50;;;;;20.35;48.09;95697.88;5006441;28;9788;-83
2023/01/03 03:30:08;;;;;;;;;78.50;66.00;;;;;20.34;47.99;95696.31;4908126;29;10580;-83
2023/01/03 03:32:40;;;;;;;;;71.00;60.00;;;;;20.33;47.83;95703.84;4912106;29;10274;-83
2023/01/03 03:35:11;;;;;;;;;81.50;67.50;;;;;20.34;48.11;95702.66;4907938;29;9884;-83
2023/01/03 03:37:41;;;;;;;;;72.25;61.00;;;;;20.32;48.01;95693.19;4908418;29;10881;-83
2023/01/03 03:45:57;;;;;;;;;68.50;58.50;;;;;20.33;47.99;95700.28;4906372;29;8868;-83
2023/01/03 03:49:36;;;;;;;;;82.50;68.75;;;;;20.32;48.09;95705.06;4910391;29;9696;-83
2023/01/03 03:51:21;;;;;;;;;70.25;60.25;;;;;20.31;47.86;95703.50;4966328;28;11186;-83
2023/01/03 03:53:50;;;;;;;;;70.25;60.25;;;;;20.32;48.02;95712.56;4968869;28;8864;-83
2023/01/03 03:56:24;;;;;;;;;79.75;67.00;;;;;20.31;47.95;95713.78;4966920;28;8863;-82
2023/01/03 03:58:56;;;;;;;;;75.25;63.00;;;;;20.32;47.83;95710.59;4983719;28;12274;-83
2023/01/03 04:01:25;;;;;;;;;76.25;64.00;;;;;20.32;47.75;95718.09;4989368;28;10203;-84
2023/01/03 04:03:59;;;;;;;;;72.00;60.75;;;;;20.31;47.73;95709.03;4985235;28;10276;-83
2023/01/03 04:06:31;;;;;;;;;81.00;67.25;;;;;20.30;47.81;95709.47;4986756;28;9921;-83
2023/01/03 04:08:58;;;;;;;;;72.75;61.25;;;;;20.30;47.80;95707.47;4980176;28;11011;-83
2023/01/03 04:11:25;;;;;;;;;72.00;62.00;;;;;20.29;47.74;95710.66;4992502;28;9225;-83
2023/01/03 04:13:52;;;;;;;;;70.50;60.50;;;;;20.30;47.78;95720.53;4991388;28;9730;-83
2023/01/03 04:16:19;;;;;;;;;77.75;65.50;;;;;20.30;47.57;95717.78;4998135;28;9760;-82
2023/01/03 04:18:46;;;;;;;;;80.75;66.75;;;;;20.28;47.76;95709.88;4983596;28;10743;-83
2023/01/03 04:21:13;;;;;;;;;70.25;60.25;;;;;20.28;47.67;95712.63;4988974;28;10894;-83
2023/01/03 04:23:46;;;;;;;;;71.50;61.25;;;;;20.27;47.61;95705.53;4987086;28;8853;-83
2023/01/03 04:26:14;;;;;;;;;80.00;67.00;;;;;20.28;47.45;95707.09;4991538;28;10371;-83
2023/01/03 04:28:41;;;;;;;;;70.25;60.00;;;;;20.27;47.26;95710.28;4992840;28;10853;-83
2023/01/03 04:31:07;;;;;;;;;72.75;61.00;;;;;20.28;47.47;95707.09;4987225;28;9421;-83
2023/01/03 04:33:35;;;;;;;;;81.25;68.00;;;;;20.27;47.38;95711.06;4998888;28;8964;-83
2023/01/03 04:36:02;;;;;;;;;80.25;67.75;;;;;20.27;47.42;95711.06;5011453;28;11507;-83
2023/01/03 04:38:29;;;;;;;;;80.25;67.25;;;;;20.27;47.43;95713.84;4993968;28;11001;-83
2023/01/03 04:41:03;;;;;;;;;80.75;68.00;;;;;20.28;47.13;95714.63;4995007;28;11073;-83
2023/01/03 04:46:15;;;;;;;;;70.25;60.25;;;;;20.29;47.28;95711.44;4986637;28;10988;-83
2023/01/03 04:48:42;;;;;;;;;71.00;61.00;;;;;20.29;47.17;95724.50;4995177;28;9233;-83
2023/01/03 04:51:09;;;;;;;;;81.50;68.00;;;;;20.28;47.37;95720.94;4980947;28;9752;-83
2023/01/03 04:53:36;;;;;;;;;71.00;60.75;;;;;20.28;47.26;95715.41;5006807;28;10704;-83
2023/01/03 04:56:03;;;;;;;;;69.25;59.25;;;;;20.27;47.34;95713.84;4989269;28;8848;-83
2023/01/03 04:58:30;;;;;;;;;69.75;59.75;;;;;20.26;47.42;95712.25;4998066;28;8956;-83
2023/01/03 05:01:03;;;;;;;;;75.50;63.50;;;;;20.25;47.21;95710.72;4980395;28;9096;-84
2023/01/03 05:03:30;;;;;;;;;64.75;56.00;;;;;20.26;47.23;95717.03;4994534;28;10415;-83
2023/01/03 05:06:01;;;;;;;;;70.00;58.50;;;;;20.26;47.14;95711.50;4979891;28;8839;-83
2023/01/03 05:08:28;;;;;;;;;69.75;60.00;;;;;20.24;47.10;95718.22;4989724;28;8831;-83
2023/01/03 05:10:55;;;;;;;;;72.50;60.25;;;;;20.26;47.13;95722.56;4996182;28;9026;-84
2023/01/03 05:13:22;;;;;;;;;80.00;66.25;;;;;20.25;46.97;95719.03;4991253;28;8905;-84
2023/01/03 05:15:49;;;;;;;;;71.00;60.25;;;;;20.25;47.15;95721.81;4983353;28;10960;-84
2023/01/03 05:18:16;;;;;;;;;79.25;66.25;;;;;20.24;47.02;95720.22;4982298;28;8838;-83
2023/01/03 05:26:17;;;;;;;;;82.00;68.00;;;;;20.22;46.93;95726.16;4997996;28;9940;-83
2023/01/03 05:28:48;;;;;;;;;70.25;59.75;;;;;20.21;46.96;95732.13;4990284;28;10904;-83
2023/01/03 05:31:14;;;;;;;;;69.75;59.75;;;;;20.21;46.83;95726.59;5000934;28;9704;-83
2023/01/03 05:33:41;;;;;;;;;70.25;60.25;;;;;20.20;47.06;95731.38;4976198;28;10090;-83
2023/01/03 05:36:09;;;;;;;;;69.25;59.75;;;;;20.21;46.96;95737.66;4986170;28;9443;-83
2023/01/03 05:38:37;;;;;;;;;81.00;68.00;;;;;20.21;46.90;95741.25;4989449;28;9193;-83
2023/01/03 05:41:04;;;;;;;;;80.50;66.75;;;;;20.22;46.98;95740.00;4986335;28;11223;-83
2023/01/03 05:43:31;;;;;;;;;72.75;61.25;;;;;20.22;46.88;95742.78;4983578;28;10901;-83
2023/01/03 05:45:58;;;;;;;;;70.50;60.00;;;;;20.22;47.08;95744.78;5004401;28;8852;-83
2023/01/03 05:48:25;;;;;;;;;80.25;67.25;;;;;20.22;46.73;95745.56;4984066;28;9012;-84
2023/01/03 05:50:56;;;;;;;;;80.00;67.50;;;;;20.22;46.69;95750.31;4978518;28;10912;-83
2023/01/03 05:53:24;;;;;;;;;80.75;67.25;;;;;20.20;46.64;95749.94;4995441;28;11031;-83
2023/01/03 05:55:51;;;;;;;;;70.00;60.25;;;;;20.21;46.90;95757.06;4990043;28;11171;-84
2023/01/03 05:58:18;;;;;;;;;70.50;60.50;;;;;20.20;46.89;95759.06;4981226;28;9012;-83
2023/01/03 06:00:45;;;;;;;;;72.50;61.25;;;;;20.23;46.83;95768.50;4985688;28;8960;-83
2023/01/03 06:03:12;;;;;;;;;80.25;68.00;;;;;20.22;46.75;95775.22;4983448;28;9564;-84
2023/01/03 06:05:39;;;;;;;;;80.25;67.25;;;;;20.21;46.81;95765.34;4990532;28;11270;-84
2023/01/03 06:08:15;;;;;;;;;71.75;61.25;;;;;20.22;46.81;95775.22;4986397;28;11250;-83
2023/01/03 06:10:42;;;;;;;;;72.50;61.00;;;;;20.21;46.83;95781.97;4991895;28;8921;-84
2023/01/03 06:13:09;;;;;;;;;79.00;66.00;;;;;20.20;46.62;95789.50;4988357;28;10152;-84
2023/01/03 06:15:36;;;;;;;;;80.25;68.00;;;;;20.23;47.07;95787.88;4989716;28;10781;-79
2023/01/03 06:18:03;;;;;;;;;81.75;68.50;;;;;20.17;46.62;95795.09;4973654;28;10824;-83
2023/01/03 06:20:30;;;;;;;;;80.25;68.00;;;;;20.19;46.65;95793.47;5002930;28;11214;-83
2023/01/03 06:22:57;;;;;;;;;81.25;67.25;;;;;20.20;46.61;95791.47;4981105;28;10983;-83
2023/01/03 06:25:24;;;;;;;;;81.00;67.25;;;;;20.21;46.50;95799.38;4977120;28;11186;-83
2023/01/03 06:27:50;;;;;;;;;70.50;60.25;;;;;20.22;46.35;95794.63;4989814;28;10971;-84
2023/01/03 06:30:19;;;;;;;;;72.25;61.75;;;;;20.23;46.38;95801.72;4976279;28;9062;-84
2023/01/03 06:32:46;;;;;;;;;82.25;67.00;;;;;20.21;46.42;95802.16;4981486;28;8823;-83
2023/01/03 06:35:13;;;;;;;;;80.25;67.25;;;;;20.21;46.13;95802.16;5001799;28;10831;-83
2023/01/03 06:37:41;;;;;;;;;70.00;60.00;;;;;20.21;46.08;95799.38;4991700;28;11567;-84
2023/01/03 06:40:08;;;;;;;;;80.75;68.00;;;;;20.20;45.87;95808.88;4979115;28;9410;-82
2023/01/03 06:42:38;;;;;;;;;72.00;60.75;;;;;20.21;45.92;95809.66;5018486;28;12485;-83
2023/01/03 06:53:29;;;;;;;;;72.25;61.25;;;;;20.19;45.95;95812.84;4982019;28;8850;-84
2023/01/03 06:55:58;;;;;;;;;72.33;61.33;;;;;20.20;45.80;95819.97;4983932;28;9337;-84
2023/01/03 06:58:25;;;;;;;;;76.25;64.00;;;;;20.20;45.87;95817.19;4990729;28;10058;-84
2023/01/03 07:00:52;;;;;;;;;73.00;62.00;;;;;20.19;45.74;95821.16;4995138;28;10606;-83
2023/01/03 07:03:20;;;;;;;;;80.50;67.25;;;;;20.20;45.64;95827.47;4997950;28;9300;-84
2023/01/03 07:05:47;;;;;;;;;80.25;68.00;;;;;20.21;45.47;95834.56;4982662;28;11606;-84
2023/01/03 07:08:14;;;;;;;;;71.75;60.25;;;;;20.22;45.35;95833.38;4993703;28;10892;-85
2023/01/03 07:10:41;;;;;;;;;72.75;61.75;;;;;20.23;45.33;95840.47;4998309;28;9722;-84
2023/01/03 07:15:53;;;;;;;;;72.75;61.75;;;;;20.18;45.35;95836.19;4991728;28;11191;-84
2023/01/03 07:18:21;;;;;;;;;80.25;68.00;;;;;20.19;45.32;95853.56;4985849;28;8928;-86
2023/01/03 07:20:47;;;;;;;;;69.75;59.75;;;;;20.14;45.63;95857.59;4990874;28;11305;-71
2023/01/03 07:23:14;;;;;;;;;81.50;67.25;;;;;20.22;46.35;95855.53;4994647;28;10143;-73
2023/01/03 07:25:41;;;;;;;;;70.25;60.00;;;;;20.22;46.79;95861.06;4990981;28;11017;-73
2023/01/03 07:28:10;;;;;;;;;74.25;63.00;;;;;20.35;45.82;95864.03;4988208;28;9281;-74
2023/01/03 07:30:43;;;;;;;;;94.50;79.75;;;;;20.38;45.98;95865.97;4976964;28;9187;-74
2023/01/03 07:33:12;;;;;;;;;102.75;92.25;;;;;20.38;46.01;95863.22;4999180;28;11515;-73
2023/01/03 07:35:39;;;;;;;;;108.25;98.50;;;;;20.37;46.33;95865.19;4983095;28;10971;-73
2023/01/03 07:38:07;;;;;;;;;116.75;109.75;;;;;20.36;46.54;95865.59;4991594;28;11271;-73
2023/01/03 07:40:34;;;;;;;;;112.50;103.50;;;;;20.35;46.59;95864.03;4995537;28;12531;-76
2023/01/03 07:45:46;;;;;;;;;108.25;105.00;;;;;20.31;46.63;95868.84;4988778;28;11643;-77
2023/01/03 07:48:13;;;;;;;;;106.50;101.75;;;;;20.21;46.81;95871.38;4983908;28;11609;-73
2023/01/03 07:50:41;;;;;;;;;89.25;73.00;;;;;20.28;35.97;95876.00;4976947;28;11635;-74
2023/01/03 07:53:08;;;;;;;;;88.67;68.00;;;;;20.20;32.88;95875.34;4970233;28;11637;-73
2023/01/03 07:55:36;;;;;;;;;105.75;85.25;;;;;19.78;33.56;95882.97;4971902;28;9492;-67
2023/01/03 07:58:03;;;;;;;;;96.67;73.00;;;;;19.56;39.35;95891.50;4974156;28;11292;-71
2023/01/03 08:00:30;;;;;;;;;87.25;71.50;;;;;19.45;40.28;95891.63;4970739;28;9848;-75
2023/01/03 08:02:57;;;;;;;;;89.50;71.00;;;;;19.46;41.19;95887.69;4972577;28;10844;-75
2023/01/03 08:05:24;;;;;;;;;81.33;65.33;;;;;19.48;42.63;95887.25;4968573;28;10911;-75
2023/01/03 08:07:52;;;;;;;;;84.25;67.75;;;;;19.52;41.35;95890.78;4985966;28;8934;-80
2023/01/03 08:13:17;;;;;;;;;75.25;63.00;;;;;19.33;33.36;95897.69;4987006;28;9030;-66
2023/01/03 08:15:46;;;;;;;;;83.50;68.25;;;;;18.73;74.51;95913.59;4981786;28;8894;-72
2023/01/03 08:18:14;;;;;;;;;82.25;68.00;;;;;17.95;72.38;95919.94;4981533;28;10584;-70
2023/01/03 08:20:41;;;;;;;;;72.00;62.00;;;;;17.46;72.22;95927.97;4979070;28;10650;-70
2023/01/03 08:23:08;;;;;;;;;73.75;62.25;;;;;16.90;70.88;95922.91;4977021;28;8931;-70
2023/01/03 08:25:36;;;;;;;;;69.25;58.50;;;;;16.28;69.00;95924.81;4983019;28;9813;-70
2023/01/03 08:28:04;;;;;;;;;74.00;62.25;;;;;15.78;66.52;95922.66;4976654;28;9814;-70
2023/01/03 08:30:32;;;;;;;;;77.50;64.00;;;;;15.34;63.84;95932.66;5000474;28;10485;-70
2023/01/03 08:33:02;;;;;;;;;76.50;64.00;;;;;14.97;64.77;95939.06;4976888;28;9788;-70
2023/01/03 08:35:33;;;;;;;;;75.75;63.50;;;;;14.55;62.26;95937.53;4974967;28;9852;-70
2023/01/03 08:38:03;;;;;;;;;68.50;59.00;;;;;14.28;62.95;95943.94;4973369;28;9787;-70
2023/01/03 08:40:33;;;;;;;;;74.75;61.00;;;;;13.97;61.36;95956.94;4974269;28;8879;-70
2023/01/03 08:43:09;;;;;;;;;68.75;59.00;;;;;13.72;61.69;95953.09;4973681;28;10040;-68
2023/01/03 08:45:37;;;;;;;;;77.00;65.00;;;;;13.53;64.37;95951.25;4975223;28;8871;-69
2023/01/03 08:48:05;;;;;;;;;68.75;58.50;;;;;13.72;67.46;95959.34;4976342;28;10518;-68
2023/01/03 08:50:32;;;;;;;;;68.00;57.75;;;;;13.92;67.77;95954.50;4977767;28;8860;-66
2023/01/03 08:52:59;;;;;;;;;70.00;60.00;;;;;14.10;67.87;95960.22;4974262;28;8847;-66
2023/01/03 08:55:26;;;;;;;;;68.00;57.25;;;;;14.28;68.61;95960.41;4975140;28;10457;-73
2023/01/03 08:57:53;;;;;;;;;67.25;58.00;;;;;14.46;67.66;95957.06;4975458;28;8893;-71
2023/01/03 09:00:20;;;;;;;;;68.00;56.00;;;;;14.64;67.96;95953.69;4973614;28;8855;-70
2023/01/03 09:02:47;;;;;;;;;70.67;60.67;;;;;14.75;69.18;95957.34;4978646;28;8858;-71
2023/01/03 09:05:15;;;;;;;;;70.67;60.67;;;;;14.89;69.25;95957.47;4973831;28;9256;-71
2023/01/03 09:07:42;;;;;;;;;66.50;56.00;;;;;15.02;69.22;95957.16;4977752;28;10037;-71
2023/01/03 09:10:10;;;;;;;;;65.25;55.50;;;;;15.13;69.42;95960.78;4980350;28;8882;-71
2023/01/03 09:12:37;;;;;;;;;65.25;56.00;;;;;15.26;69.37;95971.47;4983145;28;8844;-71
2023/01/03 09:15:04;;;;;;;;;67.00;56.00;;;;;15.38;68.87;95976.66;4983454;28;8830;-87
2023/01/03 09:17:31;;;;;;;;;68.75;58.00;;;;;15.38;67.96;95980.19;4989529;28;10144;-70
2023/01/03 09:19:57;;;;;;;;;65.00;55.50;;;;;15.54;68.57;95979.09;4983321;28;8836;-70
2023/01/03 09:22:24;;;;;;;;;69.33;59.33;;;;;15.62;68.64;95988.16;4977941;28;10929;-70
2023/01/03 09:24:51;;;;;;;;;72.33;60.33;;;;;15.69;69.15;95989.00;4988437;28;9084;-71
2023/01/03 09:27:18;;;;;;;;;70.00;60.00;;;;;15.76;68.60;95991.00;4978612;28;9249;-71
2023/01/03 09:29:45;;;;;;;;;66.25;56.00;;;;;15.82;68.61;95997.72;4981173;28;9031;-71
2023/01/03 09:32:12;;;;;;;;;68.25;59.00;;;;;15.88;69.08;96002.88;4979461;28;8861;-70
2023/01/03 09:34:39;;;;;;;;;71.00;60.00;;;;;15.93;68.86;96010.78;4983376;28;8867;-69
2023/01/03 09:37:06;;;;;;;;;68.25;59.00;;;;;15.98;68.94;96004.88;4977284;28;9058;-71
2023/01/03 09:39:32;;;;;;;;;68.33;59.00;;;;;16.04;68.23;96006.09;4984480;28;8851;-70
2023/01/03 09:44:46;;;;;;;;;76.00;64.50;;;;;16.12;68.66;96009.66;4976897;28;8875;-71
2023/01/03 09:47:20;;;;;;;;;66.25;56.50;;;;;16.15;68.76;96006.94;4984647;28;9795;-70
2023/01/03 09:49:48;;;;;;;;;71.75;61.00;;;;;16.21;69.20;96020.34;4978478;28;8859;-70
2023/01/03 10:04:29;;;;;;;;;63.25;54.25;;;;;16.38;69.28;96022.34;4980562;28;8870;-70
2023/01/03 10:07:20;;;;;;;;;64.75;56.00;;;;;16.42;68.84;96022.38;4983393;28;8975;-70
2023/01/03 10:10:23;;;;;;;;;64.25;55.00;;;;;16.45;69.14;96027.06;4991346;28;9002;-70
2023/01/03 10:13:16;;;;;;;;;68.67;59.00;;;;;16.49;68.68;96028.66;4979565;28;8864;-71
2023/01/03 10:16:07;;;;;;;;;65.50;55.50;;;;;16.52;68.69;96031.81;4977149;28;8946;-71
2023/01/03 10:18:43;;;;;;;;;72.33;60.00;;;;;16.55;68.89;96031.06;4993598;28;8908;-70
2023/01/03 10:21:31;;;;;;;;;73.67;61.00;;;;;16.58;69.22;96033.03;4986592;28;9326;-70
2023/01/03 10:23:58;;;;;;;;;64.25;55.75;;;;;16.59;69.19;96029.09;4997725;28;8989;-71
2023/01/03 10:26:32;;;;;;;;;71.33;60.33;;;;;16.62;69.13;96044.84;4980333;28;9011;-71
2023/01/03 10:29:00;;;;;;;;;72.00;60.67;;;;;16.64;69.28;96040.50;4983675;28;9321;-70
2023/01/03 10:32:02;;;;;;;;;71.33;60.33;;;;;16.66;69.32;96044.84;4988105;28;9449;-71
2023/01/03 10:34:29;;;;;;;;;71.00;60.00;;;;;16.68;68.86;96043.28;4977342;28;9022;-69
2023/01/03 10:36:56;;;;;;;;;65.50;55.50;;;;;16.70;68.70;96038.19;4982647;28;10349;-71
2023/01/03 10:39:31;;;;;;;;;71.67;60.33;;;;;16.71;68.76;96039.75;5003666;28;9223;-71
2023/01/03 10:41:58;;;;;;;;;65.25;55.25;;;;;16.73;68.62;96042.88;4978692;28;9326;-71
2023/01/03 10:44:31;;;;;;;;;63.25;55.25;;;;;16.75;69.22;96046.03;4982001;28;8949;-71
2023/01/03 10:47:07;;;;;;;;;65.00;55.25;;;;;16.77;69.49;96045.63;4987768;28;9358;-71
2023/01/03 10:49:35;;;;;;;;;63.25;54.00;;;;;16.79;69.01;96049.59;4981815;28;8880;-70
2023/01/03 10:52:11;;;;;;;;;68.33;59.00;;;;;16.82;69.18;96044.47;4975501;28;8902;-70
2023/01/03 10:54:50;;;;;;;;;61.75;53.75;;;;;16.84;68.50;96051.19;4993535;28;9389;-69
2023/01/03 10:57:52;;;;;;;;;71.67;60.00;;;;;16.87;68.76;96052.38;4998069;28;8832;-70
2023/01/03 11:00:19;;;;;;;;;66.25;55.50;;;;;16.88;68.75;96048.44;5034387;28;9175;-69
2023/01/03 11:02:47;;;;;;;;;76.50;64.25;;;;;16.89;68.54;96048.03;5033080;28;8858;-70
2023/01/03 11:05:20;;;;;;;;;62.00;53.75;;;;;16.91;68.76;96042.13;5037993;28;9684;-71
2023/01/03 11:08:15;;;;;;;;;68.33;58.33;;;;;16.93;68.69;96048.06;5036633;28;9341;-70
2023/01/03 11:10:48;;;;;;;;;71.33;59.33;;;;;16.94;69.05;96044.91;5030566;28;9242;-71
2023/01/03 11:13:24;;;;;;;;;61.00;53.00;;;;;16.96;69.17;96055.56;5039138;28;8937;-71
2023/01/03 11:15:54;;;;;;;;;63.25;54.25;;;;;16.98;69.20;96044.91;5032839;28;9701;-71
2023/01/03 11:18:22;;;;;;;;;71.00;60.00;;;;;17.01;69.32;96048.88;5036784;28;8819;-70
2023/01/03 11:21:16;;;;;;;;;75.00;60.67;;;;;17.02;69.61;96048.47;5032990;28;10399;-69
2023/01/03 11:23:53;;;;;;;;;63.00;53.50;;;;;17.05;69.37;96038.63;5017380;28;9165;-68
2023/01/03 11:26:57;;;;;;;;;63.75;54.25;;;;;17.07;69.49;96041.81;5031454;28;8971;-69
2023/01/03 11:29:56;;;;;;;;;74.00;60.67;;;;;17.09;69.75;96036.69;5039180;28;10587;-68
2023/01/03 11:32:44;;;;;;;;;65.25;56.25;;;;;17.10;69.46;96041.81;5037627;28;9259;-69
2023/01/03 11:35:42;;;;;;;;;72.25;60.25;;;;;17.12;69.45;96035.88;5056573;28;8881;-68
2023/01/03 11:38:51;;;;;;;;;69.00;59.33;;;;;17.14;70.01;96035.50;5055402;28;9829;-68
2023/01/03 11:41:33;;;;;;;;;70.67;60.33;;;;;17.15;69.90;96026.84;5060132;28;9265;-67
2023/01/03 11:44:19;;;;;;;;;62.25;52.50;;;;;17.16;69.71;96022.09;5057285;28;9747;-69
2023/01/03 11:47:04;;;;;;;;;68.25;59.25;;;;;17.18;70.02;96015.03;5060874;28;10758;-70
2023/01/03 11:49:52;;;;;;;;;64.00;55.00;;;;;17.19;70.25;96013.84;5060401;28;10667;-70
2023/01/03 11:52:38;;;;;;;;;68.00;58.33;;;;;17.22;70.47;96017.81;5061233;28;8856;-69
2023/01/03 11:55:29;;;;;;;;;63.50;54.00;;;;;17.23;70.45;96011.88;5055837;28;9001;-68
2023/01/03 11:58:26;;;;;;;;;68.25;58.25;;;;;17.25;70.59;96014.25;5064740;28;8840;-68
2023/01/03 12:01:25;;;;;;;;;66.25;57.00;;;;;17.27;70.08;96009.13;5063713;28;8848;-69
2023/01/03 12:04:23;;;;;;;;;60.75;52.25;;;;;17.29;70.32;96003.22;5045025;28;8847;-68
2023/01/03 12:06:56;;;;;;;;;63.00;54.00;;;;;17.29;70.48;95994.94;5046838;28;8824;-68
2023/01/03 12:09:56;;;;;;;;;60.75;52.25;;;;;17.31;70.50;96003.59;5042758;28;8993;-69
2023/01/03 12:12:34;;;;;;;;;69.25;58.25;;;;;17.32;70.57;96000.44;5028670;28;9634;-71
2023/01/03 12:15:21;;;;;;;;;62.75;54.00;;;;;17.34;70.53;96000.06;5037699;28;8859;-70
2023/01/03 12:18:13;;;;;;;;;61.25;52.25;;;;;17.34;70.67;95991.81;5038231;28;8859;-71
2023/01/03 12:20:46;;;;;;;;;60.00;52.00;;;;;17.35;69.96;95988.66;5040797;28;8891;-69
2023/01/03 12:23:35;;;;;;;;;61.25;53.00;;;;;17.36;70.44;95989.44;5043403;28;9206;-69
2023/01/03 12:26:09;;;;;;;;;68.67;58.67;;;;;17.37;70.47;95988.25;5061903;28;9664;-71
2023/01/03 12:28:46;;;;;;;;;61.25;53.25;;;;;17.39;70.49;95988.63;5044922;28;9216;-70
2023/01/03 12:31:13;;;;;;;;;66.50;57.25;;;;;17.39;70.24;95988.63;5044648;28;9268;-68
2023/01/03 12:33:47;;;;;;;;;67.25;58.00;;;;;17.40;70.26;95979.97;5043169;28;8950;-69
2023/01/03 12:36:33;;;;;;;;;62.00;54.00;;;;;17.41;69.75;95975.25;5043446;28;9488;-69
2023/01/03 12:39:33;;;;;;;;;61.00;52.00;;;;;17.42;69.99;95974.06;5037485;28;9170;-69
2023/01/03 12:42:28;;;;;;;;;60.25;52.25;;;;;17.43;69.69;95979.19;5063699;28;9675;-70
2023/01/03 12:45:18;;;;;;;;;75.25;63.25;;;;;17.43;69.77;95967.38;5061585;28;8820;-70
2023/01/03 12:48:10;;;;;;;;;71.00;61.00;;;;;17.43;69.76;95970.91;5061728;28;9445;-70